createdAt,value
2023-03-06T00:01:00.212Z,100.00
2023-03-06T00:03:28.185Z,100.00
2023-03-06T00:05:57.398Z,100.00
2023-03-06T00:08:25.489Z,100.00
2023-03-06T00:10:52.671Z,100.00
2023-03-06T00:13:20.027Z,100.00
2023-03-06T00:15:47.992Z,100.00
2023-03-06T00:18:15.459Z,100.00
2023-03-06T00:20:43.595Z,100.00
2023-03-06T00:23:11.200Z,100.00
2023-03-06T00:25:38.937Z,100.00
2023-03-06T00:28:06.495Z,100.00
2023-03-06T00:30:33.976Z,100.00
2023-03-06T00:33:00.624Z,100.00
2023-03-06T00:35:27.325Z,100.00
2023-03-06T00:37:54.093Z,100.00
2023-03-06T00:40:22.032Z,100.00
2023-03-06T00:42:48.882Z,100.00
2023-03-06T00:45:16.130Z,100.00
2023-03-06T00:47:43.650Z,100.00
2023-03-06T00:50:11.100Z,100.00
2023-03-06T00:52:37.838Z,100.00
2023-03-06T00:55:05.767Z,100.00
2023-03-06T00:57:32.510Z,100.00
2023-03-06T00:59:59.504Z,100.00
2023-03-06T01:02:26.200Z,100.00
2023-03-06T01:04:52.938Z,100.00
2023-03-06T01:07:19.581Z,100.00
2023-03-06T01:09:46.185Z,100.00
2023-03-06T01:12:12.866Z,100.00
2023-03-06T01:14:39.471Z,100.00
2023-03-06T01:17:06.088Z,100.00
2023-03-06T01:19:32.821Z,100.00
2023-03-06T01:21:59.498Z,100.00
2023-03-06T01:24:26.209Z,100.00
2023-03-06T01:26:52.975Z,100.00
2023-03-06T01:29:21.123Z,100.00
2023-03-06T01:31:47.918Z,100.00
2023-03-06T01:34:14.904Z,100.00
2023-03-06T01:36:41.691Z,100.00
2023-03-06T01:39:08.403Z,100.00
2023-03-06T01:41:35.401Z,100.00
2023-03-06T01:44:02.717Z,100.00
2023-03-06T01:46:29.548Z,100.00
2023-03-06T01:49:02.916Z,100.00
2023-03-06T01:51:34.716Z,100.00
2023-03-06T01:54:08.848Z,100.00
2023-03-06T01:56:36.233Z,100.00
2023-03-06T01:59:03.409Z,100.00
2023-03-06T02:01:31.345Z,100.00
2023-03-06T02:03:59.679Z,100.00
2023-03-06T02:06:27.278Z,100.00
2023-03-06T02:08:54.695Z,100.00
2023-03-06T02:11:25.818Z,100.00
2023-03-06T02:13:54.821Z,100.00
2023-03-06T02:16:26.515Z,100.00
2023-03-06T02:18:53.953Z,100.00
2023-03-06T02:21:25.719Z,100.00
2023-03-06T02:24:02.199Z,100.00
2023-03-06T02:26:29.982Z,100.00
2023-03-06T02:28:58.530Z,100.00
2023-03-06T02:31:28.978Z,100.00
2023-03-06T02:34:06.787Z,100.00
2023-03-06T02:36:49.896Z,100.00
2023-03-06T02:39:20.275Z,100.00
2023-03-06T02:41:46.981Z,100.00
2023-03-06T02:44:13.761Z,100.00
2023-03-06T02:46:40.471Z,100.00
2023-03-06T02:49:07.128Z,100.00
2023-03-06T02:51:34.585Z,100.00
2023-03-06T02:54:01.270Z,100.00
2023-03-06T02:56:28.041Z,100.00
2023-03-06T02:58:54.731Z,100.00
2023-03-06T03:01:21.427Z,100.00
2023-03-06T03:03:48.219Z,100.00
2023-03-06T03:06:14.971Z,100.00
2023-03-06T03:08:41.673Z,100.00
2023-03-06T03:11:09.435Z,100.00
2023-03-06T03:13:37.591Z,100.00
2023-03-06T03:16:06.250Z,100.00
2023-03-06T03:18:33.599Z,100.00
2023-03-06T03:21:00.486Z,100.00
2023-03-06T03:23:27.538Z,100.00
2023-03-06T03:25:54.690Z,100.00
2023-03-06T03:28:21.628Z,100.00
2023-03-06T03:30:50.071Z,100.00
2023-03-06T03:33:16.767Z,100.00
2023-03-06T03:35:43.484Z,100.00
2023-03-06T03:38:10.283Z,100.00
2023-03-06T03:40:38.917Z,100.00
2023-03-06T03:43:05.666Z,100.00
2023-03-06T03:45:32.333Z,100.00
2023-03-06T03:47:59.040Z,100.00
2023-03-06T03:50:25.914Z,100.00
2023-03-06T03:52:52.858Z,100.00
2023-03-06T03:55:19.455Z,100.00
2023-03-06T03:57:46.197Z,100.00
2023-03-06T04:00:16.635Z,100.00
2023-03-06T04:02:45.157Z,100.00
2023-03-06T04:05:14.660Z,100.00
2023-03-06T04:07:42.632Z,100.00
2023-03-06T04:10:10.867Z,100.00
2023-03-06T04:12:37.696Z,100.00
2023-03-06T04:15:07.069Z,100.00
2023-03-06T04:17:37.029Z,100.00
2023-03-06T04:20:04.960Z,100.00
2023-03-06T04:22:31.700Z,100.00
2023-03-06T04:24:58.405Z,100.00
2023-03-06T04:27:25.105Z,100.00
2023-03-06T04:29:51.867Z,100.00
2023-03-06T04:32:21.250Z,100.00
2023-03-06T04:34:48.098Z,100.00
2023-03-06T04:37:20.943Z,100.00
2023-03-06T04:39:47.747Z,100.00
2023-03-06T04:42:14.898Z,100.00
2023-03-06T04:44:42.700Z,100.00
2023-03-06T04:47:09.483Z,100.00
2023-03-06T04:49:36.246Z,100.00
2023-03-06T04:52:03.520Z,100.00
2023-03-06T04:54:30.508Z,100.00
2023-03-06T04:56:57.370Z,100.00
2023-03-06T04:59:24.072Z,100.00
2023-03-06T05:01:50.824Z,100.00
2023-03-06T05:04:17.607Z,100.00
2023-03-06T05:06:44.362Z,100.00
2023-03-06T05:09:11.118Z,100.00
2023-03-06T05:11:38.441Z,100.00
2023-03-06T05:14:05.198Z,100.00
2023-03-06T05:16:31.868Z,100.00
2023-03-06T05:18:58.564Z,100.00
2023-03-06T05:21:25.251Z,100.00
2023-03-06T05:23:51.951Z,100.00
2023-03-06T05:26:18.612Z,100.00
2023-03-06T05:28:45.384Z,100.00
2023-03-06T05:31:12.174Z,100.00
2023-03-06T05:33:38.835Z,100.00
2023-03-06T05:36:08.103Z,100.00
2023-03-06T05:38:34.771Z,100.00
2023-03-06T05:41:01.480Z,100.00
2023-03-06T05:43:28.197Z,100.00
2023-03-06T05:46:05.931Z,100.00
2023-03-06T05:48:33.138Z,100.00
2023-03-06T05:51:01.762Z,100.00
2023-03-06T05:53:29.394Z,100.00
2023-03-06T05:56:01.481Z,100.00
2023-03-06T05:58:29.038Z,100.00
2023-03-06T06:00:55.779Z,100.00
2023-03-06T06:03:23.231Z,100.00
2023-03-06T06:05:50.318Z,100.00
2023-03-06T06:08:17.345Z,100.00
2023-03-06T06:10:44.249Z,100.00
2023-03-06T06:13:10.946Z,100.00
2023-03-06T06:15:38.874Z,100.00
2023-03-06T06:18:05.846Z,100.00
2023-03-06T06:20:32.590Z,100.00
2023-03-06T06:22:59.347Z,100.00
2023-03-06T06:25:26.566Z,100.00
2023-03-06T06:27:56.642Z,100.00
2023-03-06T06:30:24.917Z,100.00
2023-03-06T06:32:51.567Z,100.00
2023-03-06T06:35:18.383Z,100.00
2023-03-06T06:37:45.142Z,100.00
2023-03-06T06:40:12.220Z,100.00
2023-03-06T06:42:40.241Z,100.00
2023-03-06T06:45:10.612Z,100.00
2023-03-06T06:47:41.861Z,100.00
2023-03-06T06:50:12.931Z,100.00
2023-03-06T06:52:40.442Z,100.00
2023-03-06T06:55:09.267Z,100.00
2023-03-06T06:57:35.964Z,100.00
2023-03-06T07:00:03.837Z,100.00
2023-03-06T07:02:32.303Z,100.00
2023-03-06T07:05:06.366Z,100.00
2023-03-06T07:07:38.197Z,100.00
2023-03-06T07:10:13.579Z,100.00
2023-03-06T07:12:40.344Z,100.00
2023-03-06T07:15:08.112Z,100.00
2023-03-06T07:17:34.826Z,100.00
2023-03-06T07:20:01.681Z,100.00
2023-03-06T07:22:31.962Z,100.00
2023-03-06T07:25:04.068Z,100.00
2023-03-06T07:27:30.885Z,100.00
2023-03-06T07:29:58.129Z,100.00
2023-03-06T07:32:25.118Z,91.01
2023-03-06T07:34:51.823Z,100.00
2023-03-06T07:37:18.563Z,100.00
2023-03-06T07:39:45.321Z,99.49
2023-03-06T07:42:15.096Z,83.95
2023-03-06T07:44:41.782Z,74.92
2023-03-06T07:47:08.575Z,85.77
2023-03-06T07:49:35.533Z,82.05
2023-03-06T07:52:02.309Z,81.13
2023-03-06T07:54:30.856Z,59.41
2023-03-06T07:56:57.619Z,58.12
2023-03-06T07:59:24.599Z,60.28
2023-03-06T08:01:51.332Z,58.86
2023-03-06T08:04:18.013Z,57.19
2023-03-06T08:06:44.739Z,54.66
2023-03-06T08:09:11.448Z,61.25
2023-03-06T08:11:38.156Z,58.53
2023-03-06T08:14:05.032Z,49.56
2023-03-06T08:16:31.893Z,51.61
2023-03-06T08:18:58.712Z,49.06
2023-03-06T08:21:27.627Z,47.14
2023-03-06T08:23:55.065Z,43.27
2023-03-06T08:26:27.692Z,45.67
2023-03-06T08:28:56.043Z,46.20
2023-03-06T08:31:28.589Z,47.05
2023-03-06T08:33:56.356Z,48.97
2023-03-06T08:36:23.999Z,49.97
2023-03-06T08:38:50.811Z,47.00
2023-03-06T08:41:17.704Z,48.27
2023-03-06T08:43:44.422Z,47.70
2023-03-06T08:46:11.947Z,50.40
2023-03-06T08:48:40.236Z,58.44
2023-03-06T08:51:09.504Z,53.58
2023-03-06T08:53:42.993Z,46.98
2023-03-06T08:56:31.708Z,45.00
2023-03-06T08:59:01.006Z,46.91
2023-03-06T09:01:36.822Z,51.72
2023-03-06T09:04:06.997Z,50.19
2023-03-06T09:06:39.290Z,58.26
2023-03-06T09:09:06.939Z,52.88
2023-03-06T09:11:34.288Z,55.55
2023-03-06T09:14:01.124Z,52.14
2023-03-06T09:16:27.946Z,51.96
2023-03-06T09:18:54.940Z,44.14
2023-03-06T09:21:22.645Z,46.13
2023-03-06T09:23:50.085Z,43.64
2023-03-06T09:26:17.483Z,46.10
2023-03-06T09:28:44.462Z,48.75
2023-03-06T09:31:13.788Z,51.35
2023-03-06T09:33:40.813Z,53.46
2023-03-06T09:36:09.033Z,48.90
2023-03-06T09:38:35.729Z,46.32
2023-03-06T09:41:31.857Z,45.22
2023-03-06T09:44:09.160Z,49.33
2023-03-06T09:46:46.056Z,49.13
2023-03-06T09:49:45.233Z,45.37
2023-03-06T09:52:17.882Z,47.85
2023-03-06T09:54:54.115Z,65.08
2023-03-06T09:57:26.120Z,66.49
2023-03-06T09:59:57.915Z,66.89
2023-03-06T10:02:40.221Z,58.51
2023-03-06T10:05:24.195Z,52.91
2023-03-06T10:07:57.207Z,51.98
2023-03-06T10:10:27.247Z,51.33
2023-03-06T10:13:18.682Z,46.12
2023-03-06T10:15:48.156Z,45.14
2023-03-06T10:18:14.907Z,45.16
2023-03-06T10:20:47.795Z,42.65
2023-03-06T10:23:29.383Z,42.27
2023-03-06T10:26:22.572Z,40.73
2023-03-06T10:29:11.691Z,44.57
2023-03-06T10:31:49.576Z,43.27
2023-03-06T10:34:37.642Z,47.38
2023-03-06T10:37:19.703Z,44.12
2023-03-06T10:39:48.483Z,41.98
2023-03-06T10:42:15.136Z,41.94
2023-03-06T10:44:41.899Z,43.49
2023-03-06T10:47:30.597Z,43.69
2023-03-06T10:50:02.673Z,43.34
2023-03-06T10:52:32.014Z,43.05
2023-03-06T10:55:29.265Z,40.83
2023-03-06T10:57:55.963Z,44.97
2023-03-06T11:00:33.247Z,44.10
2023-03-06T11:03:04.876Z,48.44
2023-03-06T11:05:31.637Z,43.78
2023-03-06T11:08:00.605Z,45.68
2023-03-06T11:10:29.088Z,45.17
2023-03-06T11:13:02.818Z,44.21
2023-03-06T11:15:29.923Z,43.67
2023-03-06T11:18:08.924Z,43.17
2023-03-06T11:20:51.879Z,46.04
2023-03-06T11:23:34.785Z,47.35
2023-03-06T11:26:16.697Z,44.31
2023-03-06T11:29:17.416Z,45.19
2023-03-06T11:31:56.951Z,46.48
2023-03-06T11:34:38.494Z,45.17
2023-03-06T11:37:29.564Z,44.95
2023-03-06T11:40:11.560Z,45.60
2023-03-06T11:42:42.751Z,45.18
2023-03-06T11:45:27.936Z,45.19
2023-03-06T11:48:17.474Z,44.96
2023-03-06T11:51:07.027Z,46.29
2023-03-06T11:53:37.060Z,46.48
2023-03-06T11:56:18.250Z,47.99
2023-03-06T11:59:15.846Z,49.71
2023-03-06T12:01:57.712Z,52.07
2023-03-06T12:05:08.293Z,50.45
2023-03-06T12:08:04.049Z,49.55
2023-03-06T12:10:36.862Z,48.98
2023-03-06T12:13:31.346Z,51.15
2023-03-06T12:16:25.905Z,48.97
2023-03-06T12:19:04.816Z,48.72
2023-03-06T12:21:40.288Z,51.14
2023-03-06T12:24:24.496Z,46.74
2023-03-06T12:26:57.057Z,47.26
2023-03-06T12:29:52.538Z,48.51
2023-03-06T12:32:46.887Z,49.05
2023-03-06T12:35:37.817Z,52.28
2023-03-06T12:38:10.348Z,53.65
2023-03-06T12:40:40.029Z,52.90
2023-03-06T12:43:34.133Z,55.03
2023-03-06T12:46:15.561Z,53.49
2023-03-06T12:48:45.891Z,58.57
2023-03-06T12:51:18.291Z,60.84
2023-03-06T12:53:45.784Z,57.05
2023-03-06T12:56:15.714Z,56.88
2023-03-06T12:58:56.479Z,55.43
2023-03-06T13:01:47.727Z,55.88
2023-03-06T13:04:49.855Z,57.45
2023-03-06T13:07:52.851Z,57.27
2023-03-06T13:10:27.895Z,59.20
2023-03-06T13:12:56.217Z,56.44
2023-03-06T13:15:43.185Z,60.96
2023-03-06T13:18:21.932Z,55.34
2023-03-06T13:20:58.909Z,63.62
2023-03-06T13:23:39.137Z,62.92
2023-03-06T13:26:11.159Z,61.35
2023-03-06T13:28:50.401Z,56.65
2023-03-06T13:31:55.037Z,57.38
2023-03-06T13:34:38.259Z,62.22
2023-03-06T13:37:13.851Z,66.28
2023-03-06T13:39:52.476Z,72.55
2023-03-06T13:42:37.167Z,63.46
2023-03-06T13:45:07.959Z,61.78
2023-03-06T13:50:44.667Z,72.05
2023-03-06T13:53:42.526Z,65.81
2023-03-06T13:56:32.929Z,70.07
2023-03-06T13:59:41.243Z,74.78
2023-03-06T14:02:34.096Z,66.44
2023-03-06T14:05:03.658Z,71.89
2023-03-06T14:07:33.570Z,69.49
2023-03-06T14:10:19.957Z,74.58
2023-03-06T14:12:49.675Z,80.31
2023-03-06T14:15:22.639Z,82.08
2023-03-06T14:18:01.836Z,75.10
2023-03-06T14:20:54.624Z,85.63
2023-03-06T14:23:21.259Z,84.45
2023-03-06T14:25:56.370Z,83.75
2023-03-06T14:28:28.837Z,95.71
2023-03-06T14:30:57.039Z,89.57
2023-03-06T14:33:32.213Z,100.00
2023-03-06T14:36:02.487Z,91.91
2023-03-06T14:38:35.730Z,100.00
2023-03-06T14:41:05.032Z,100.00
2023-03-06T14:43:32.411Z,100.00
2023-03-06T14:46:01.605Z,84.57
2023-03-06T14:48:42.804Z,99.15
2023-03-06T14:51:17.104Z,91.50
2023-03-06T14:53:46.425Z,100.00
2023-03-06T14:56:22.556Z,100.00
2023-03-06T14:59:00.369Z,100.00
2023-03-06T15:01:49.885Z,100.00
2023-03-06T15:04:31.932Z,100.00
2023-03-06T15:06:59.384Z,100.00
2023-03-06T15:09:32.862Z,100.00
2023-03-06T15:12:01.088Z,100.00
2023-03-06T15:14:42.189Z,100.00
2023-03-06T15:17:17.968Z,100.00
2023-03-06T15:19:47.063Z,100.00
2023-03-06T15:22:26.444Z,100.00
2023-03-06T15:24:54.450Z,100.00
2023-03-06T15:27:29.683Z,100.00
2023-03-06T15:30:30.462Z,100.00
2023-03-06T15:33:22.134Z,100.00
2023-03-06T15:35:57.722Z,100.00
2023-03-06T15:38:33.053Z,100.00
2023-03-06T15:41:02.300Z,100.00
2023-03-06T15:43:35.183Z,100.00
2023-03-06T15:46:02.094Z,100.00
2023-03-06T15:48:28.913Z,100.00
2023-03-06T15:50:55.644Z,100.00
2023-03-06T15:53:22.959Z,100.00
2023-03-06T15:55:51.552Z,100.00
2023-03-06T15:58:24.933Z,100.00
2023-03-06T16:00:52.071Z,100.00
2023-03-06T16:03:19.094Z,100.00
2023-03-06T16:05:45.786Z,100.00
2023-03-06T16:08:14.960Z,100.00
2023-03-06T16:10:44.054Z,100.00
2023-03-06T16:13:24.491Z,100.00
2023-03-06T16:15:51.375Z,100.00
2023-03-06T16:18:19.000Z,100.00
2023-03-06T16:20:46.570Z,100.00
2023-03-06T16:23:13.282Z,100.00
2023-03-06T16:25:43.052Z,100.00
2023-03-06T16:28:14.744Z,100.00
2023-03-06T16:30:43.290Z,100.00
2023-03-06T16:33:12.061Z,100.00
2023-03-06T16:35:39.908Z,100.00
2023-03-06T16:38:07.157Z,100.00
2023-03-06T16:40:38.415Z,100.00
2023-03-06T16:43:05.685Z,100.00
2023-03-06T16:45:36.458Z,100.00
2023-03-06T16:48:03.169Z,100.00
2023-03-06T16:50:33.274Z,100.00
2023-03-06T16:53:00.271Z,100.00
2023-03-06T16:55:27.698Z,100.00
2023-03-06T16:57:54.782Z,100.00
2023-03-06T17:00:24.613Z,100.00
2023-03-06T17:02:52.524Z,100.00
2023-03-06T17:05:20.171Z,100.00
2023-03-06T17:07:47.361Z,100.00
2023-03-06T17:10:16.507Z,100.00
2023-03-06T17:12:43.720Z,100.00
2023-03-06T17:15:11.574Z,100.00
2023-03-06T17:17:38.540Z,100.00
2023-03-06T17:20:07.784Z,100.00
2023-03-06T17:22:36.217Z,100.00
2023-03-06T17:25:06.853Z,100.00
2023-03-06T17:27:35.196Z,100.00
2023-03-06T17:30:02.571Z,100.00
2023-03-06T17:32:29.334Z,100.00
2023-03-06T17:34:57.119Z,100.00
2023-03-06T17:37:23.854Z,100.00
2023-03-06T17:39:50.713Z,100.00
2023-03-06T17:42:17.512Z,100.00
2023-03-06T17:44:44.331Z,100.00
2023-03-06T17:47:11.229Z,100.00
2023-03-06T17:49:37.984Z,100.00
2023-03-06T17:52:05.861Z,100.00
2023-03-06T17:54:33.357Z,100.00
2023-03-06T17:57:03.534Z,100.00
2023-03-06T17:59:31.565Z,100.00
2023-03-06T18:01:59.645Z,100.00
2023-03-06T18:04:26.934Z,100.00
2023-03-06T18:06:53.729Z,100.00
2023-03-06T18:09:20.520Z,100.00
2023-03-06T18:11:47.295Z,100.00
2023-03-06T18:14:14.289Z,100.00
2023-03-06T18:16:41.477Z,100.00
2023-03-06T18:19:11.412Z,100.00
2023-03-06T18:21:39.788Z,100.00
2023-03-06T18:24:07.370Z,100.00
2023-03-06T18:26:34.266Z,100.00
2023-03-06T18:29:03.835Z,100.00
2023-03-06T18:31:34.595Z,100.00
2023-03-06T18:34:05.637Z,100.00
2023-03-06T18:36:34.362Z,100.00
2023-03-06T18:39:03.986Z,100.00
2023-03-06T18:41:31.350Z,100.00
2023-03-06T18:44:00.300Z,100.00
2023-03-06T18:46:39.774Z,100.00
2023-03-06T18:49:07.160Z,100.00
2023-03-06T18:51:33.902Z,100.00
2023-03-06T18:54:02.671Z,100.00
2023-03-06T18:56:32.270Z,100.00
2023-03-06T18:59:04.433Z,100.00
2023-03-06T19:01:31.504Z,100.00
2023-03-06T19:04:02.958Z,100.00
2023-03-06T19:06:30.289Z,100.00
2023-03-06T19:08:58.826Z,100.00
2023-03-06T19:11:26.904Z,100.00
2023-03-06T19:13:53.857Z,100.00
2023-03-06T19:16:24.662Z,100.00
2023-03-06T19:18:51.500Z,100.00
2023-03-06T19:21:20.450Z,100.00
2023-03-06T19:23:48.320Z,100.00
2023-03-06T19:26:15.722Z,100.00
2023-03-06T19:28:43.585Z,100.00
2023-03-06T19:31:25.237Z,100.00
2023-03-06T19:33:53.541Z,100.00
2023-03-06T19:36:26.614Z,100.00
2023-03-06T19:38:57.432Z,100.00
2023-03-06T19:41:24.800Z,100.00
2023-03-06T19:43:54.578Z,100.00
2023-03-06T19:46:22.924Z,100.00
2023-03-06T19:49:01.149Z,100.00
2023-03-06T19:51:28.450Z,100.00
2023-03-06T19:53:57.017Z,100.00
2023-03-06T19:56:26.381Z,100.00
2023-03-06T19:58:53.556Z,100.00
2023-03-06T20:01:22.397Z,100.00
2023-03-06T20:03:50.870Z,100.00
2023-03-06T20:06:19.887Z,100.00
2023-03-06T20:08:47.534Z,100.00
2023-03-06T20:11:18.301Z,100.00
2023-03-06T20:13:47.352Z,100.00
2023-03-06T20:16:15.280Z,100.00
2023-03-06T20:18:42.058Z,100.00
2023-03-06T20:21:08.921Z,100.00
2023-03-06T20:23:35.741Z,100.00
2023-03-06T20:26:04.712Z,100.00
2023-03-06T20:28:31.875Z,100.00
2023-03-06T20:30:58.669Z,100.00
2023-03-06T20:33:26.776Z,100.00
2023-03-06T20:35:54.483Z,100.00
2023-03-06T20:38:21.303Z,100.00
2023-03-06T20:40:48.010Z,100.00
2023-03-06T20:43:14.775Z,100.00
2023-03-06T20:45:41.652Z,100.00
2023-03-06T20:48:08.424Z,100.00
2023-03-06T20:50:35.127Z,100.00
2023-03-06T20:53:02.012Z,100.00
2023-03-06T20:55:28.689Z,100.00
2023-03-06T20:57:55.354Z,100.00
2023-03-06T21:00:22.153Z,100.00
2023-03-06T21:02:48.989Z,100.00
2023-03-06T21:05:15.730Z,100.00
2023-03-06T21:07:42.629Z,100.00
2023-03-06T21:10:09.942Z,100.00
2023-03-06T21:12:36.588Z,100.00
2023-03-06T21:15:03.818Z,100.00
2023-03-06T21:17:30.598Z,100.00
2023-03-06T21:19:58.488Z,100.00
2023-03-06T21:22:25.609Z,100.00
2023-03-06T21:24:52.240Z,100.00
2023-03-06T21:27:18.939Z,100.00
2023-03-06T21:29:45.897Z,100.00
2023-03-06T21:32:12.553Z,100.00
2023-03-06T21:34:39.201Z,100.00
2023-03-06T21:37:05.927Z,100.00
2023-03-06T21:39:32.675Z,100.00
2023-03-06T21:41:59.355Z,100.00
2023-03-06T21:44:26.198Z,100.00
2023-03-06T21:46:52.891Z,100.00
2023-03-06T21:49:22.986Z,100.00
2023-03-06T21:51:50.878Z,100.00
2023-03-06T21:54:17.562Z,100.00
2023-03-06T21:56:44.315Z,100.00
2023-03-06T21:59:11.066Z,100.00
2023-03-06T22:01:37.768Z,100.00
2023-03-06T22:04:04.743Z,100.00
2023-03-06T22:06:31.836Z,100.00
2023-03-06T22:09:00.021Z,100.00
2023-03-06T22:11:30.651Z,100.00
2023-03-06T22:13:58.285Z,100.00
2023-03-06T22:16:25.022Z,100.00
2023-03-06T22:18:52.186Z,100.00
2023-03-06T22:21:21.702Z,100.00
2023-03-06T22:23:53.543Z,100.00
2023-03-06T22:26:20.667Z,100.00
2023-03-06T22:28:47.461Z,100.00
2023-03-06T22:31:19.936Z,100.00
2023-03-06T22:33:47.069Z,100.00
2023-03-06T22:36:15.452Z,100.00
2023-03-06T22:38:44.667Z,100.00
2023-03-06T22:41:12.844Z,100.00
2023-03-06T22:43:39.826Z,100.00
2023-03-06T22:46:12.152Z,100.00
2023-03-06T22:48:39.124Z,100.00
2023-03-06T22:51:19.763Z,100.00
2023-03-06T22:53:48.023Z,100.00
2023-03-06T22:56:17.280Z,100.00
2023-03-06T22:58:45.060Z,100.00
2023-03-06T23:01:20.049Z,100.00
2023-03-06T23:03:51.721Z,100.00
2023-03-06T23:06:32.368Z,100.00
2023-03-06T23:09:03.388Z,100.00
2023-03-06T23:11:30.921Z,100.00
2023-03-06T23:13:58.104Z,100.00
2023-03-06T23:16:25.994Z,100.00
2023-03-06T23:18:53.590Z,100.00
2023-03-06T23:21:21.791Z,100.00
2023-03-06T23:23:50.775Z,100.00
2023-03-06T23:26:19.695Z,100.00
2023-03-06T23:28:46.634Z,100.00
2023-03-06T23:31:16.094Z,100.00
2023-03-06T23:33:42.936Z,100.00
2023-03-06T23:36:12.699Z,100.00
2023-03-06T23:38:41.068Z,100.00
2023-03-06T23:41:11.878Z,100.00
2023-03-06T23:43:38.855Z,100.00
2023-03-06T23:46:07.329Z,100.00
2023-03-06T23:48:36.040Z,100.00
2023-03-06T23:51:12.865Z,100.00
2023-03-06T23:53:39.595Z,100.00
2023-03-06T23:56:08.291Z,100.00
2023-03-06T23:58:35.830Z,100.00
